createdAt,value
2022-12-28T00:01:20.190Z,44.13
2022-12-28T00:03:48.648Z,45.35
2022-12-28T00:06:17.144Z,45.78
2022-12-28T00:08:45.143Z,47.80
2022-12-28T00:11:26.717Z,48.40
2022-12-28T00:14:00.015Z,43.30
2022-12-28T00:16:34.556Z,48.92
2022-12-28T00:19:04.595Z,39.67
2022-12-28T00:21:32.253Z,45.75
2022-12-28T00:24:00.983Z,45.88
2022-12-28T00:26:30.896Z,49.22
2022-12-28T00:29:04.075Z,44.92
2022-12-28T00:31:33.670Z,41.90
2022-12-28T00:34:02.006Z,38.75
2022-12-28T00:37:09.482Z,42.65
2022-12-28T00:39:17.073Z,40.75
2022-12-28T00:41:44.620Z,39.50
2022-12-28T00:44:12.316Z,36.30
2022-12-28T00:46:39.721Z,39.67
2022-12-28T00:49:07.264Z,37.27
2022-12-28T00:51:34.677Z,39.17
2022-12-28T00:54:02.069Z,36.97
2022-12-28T00:56:29.455Z,38.78
2022-12-28T00:58:58.398Z,38.45
2022-12-28T01:01:27.346Z,36.05
2022-12-28T01:03:59.293Z,32.47
2022-12-28T01:06:28.591Z,35.30
2022-12-28T01:08:56.005Z,39.35
2022-12-28T01:11:25.606Z,34.80
2022-12-28T01:13:56.219Z,30.98
2022-12-28T01:16:33.315Z,35.47
2022-12-28T01:19:03.212Z,33.95
2022-12-28T01:21:33.093Z,31.52
2022-12-28T01:24:02.645Z,33.20
2022-12-28T01:26:32.677Z,29.50
2022-12-28T01:29:00.276Z,34.63
2022-12-28T01:31:27.791Z,31.85
2022-12-28T01:33:55.705Z,30.90
2022-12-28T01:36:26.134Z,34.67
2022-12-28T01:38:59.231Z,29.23
2022-12-28T01:41:28.942Z,27.30
2022-12-28T01:43:56.243Z,34.22
2022-12-28T01:46:45.458Z,31.05
2022-12-28T01:49:16.825Z,27.70
2022-12-28T01:52:05.167Z,28.73
2022-12-28T01:54:43.608Z,29.92
2022-12-28T01:57:11.843Z,29.83
2022-12-28T01:59:43.752Z,27.00
2022-12-28T02:02:14.813Z,26.30
2022-12-28T02:04:43.727Z,25.75
2022-12-28T02:07:15.062Z,27.50
2022-12-28T02:09:44.473Z,23.55
2022-12-28T02:12:33.113Z,27.00
2022-12-28T02:15:01.289Z,23.30
2022-12-28T02:17:30.610Z,23.60
2022-12-28T02:19:58.044Z,21.98
2022-12-28T02:22:52.272Z,23.20
2022-12-28T02:25:50.696Z,25.98
2022-12-28T02:28:55.568Z,21.65
2022-12-28T02:31:36.250Z,22.15
2022-12-28T02:34:21.415Z,20.20
2022-12-28T02:37:16.646Z,22.23
2022-12-28T02:39:51.816Z,20.55
2022-12-28T02:42:20.836Z,21.02
2022-12-28T02:45:07.321Z,19.63
2022-12-28T02:47:53.568Z,18.88
2022-12-28T02:50:22.563Z,20.63
2022-12-28T02:53:24.781Z,20.50
2022-12-28T02:56:17.183Z,17.80
2022-12-28T02:59:21.787Z,20.50
2022-12-28T03:02:40.387Z,19.42
2022-12-28T03:05:14.966Z,19.77
2022-12-28T03:08:17.911Z,18.95
2022-12-28T03:11:09.115Z,20.17
2022-12-28T03:13:56.376Z,22.52
2022-12-28T03:16:32.976Z,20.67
2022-12-28T03:19:24.242Z,22.75
2022-12-28T03:22:14.110Z,18.67
2022-12-28T03:25:04.022Z,22.92
2022-12-28T03:27:52.364Z,20.40
2022-12-28T03:30:41.996Z,20.35
2022-12-28T03:33:11.690Z,20.75
2022-12-28T03:35:55.756Z,20.08
2022-12-28T03:38:33.435Z,21.10
2022-12-28T03:41:13.365Z,20.08
2022-12-28T03:43:50.566Z,21.23
2022-12-28T03:46:31.452Z,20.25
2022-12-28T03:49:00.597Z,21.33
2022-12-28T03:51:31.698Z,19.77
2022-12-28T03:54:03.393Z,18.50
2022-12-28T03:56:31.600Z,20.80
2022-12-28T03:59:01.984Z,21.83
2022-12-28T04:01:38.335Z,17.35
2022-12-28T04:04:05.801Z,18.63
2022-12-28T04:06:33.863Z,18.55
2022-12-28T04:09:01.489Z,15.55
2022-12-28T04:11:31.867Z,16.48
2022-12-28T04:14:03.113Z,17.13
2022-12-28T04:16:35.891Z,16.40
2022-12-28T04:19:04.344Z,14.07
2022-12-28T04:21:32.006Z,15.20
2022-12-28T04:24:00.066Z,16.08
2022-12-28T04:26:27.552Z,13.82
2022-12-28T04:29:00.822Z,13.98
2022-12-28T04:31:31.243Z,14.68
2022-12-28T04:34:04.146Z,16.45
2022-12-28T04:36:34.736Z,14.40
2022-12-28T04:39:03.656Z,17.95
2022-12-28T04:41:31.041Z,13.82
2022-12-28T04:43:58.458Z,15.32
2022-12-28T04:46:25.971Z,16.20
2022-12-28T04:48:53.417Z,17.75
2022-12-28T04:51:25.851Z,14.55
2022-12-28T04:53:54.893Z,15.67
2022-12-28T04:56:23.851Z,14.63
2022-12-28T04:58:59.526Z,18.42
2022-12-28T05:01:27.602Z,14.50
2022-12-28T05:03:59.409Z,18.73
2022-12-28T05:06:28.124Z,15.57
2022-12-28T05:08:57.410Z,15.30
2022-12-28T05:11:27.965Z,17.05
2022-12-28T05:13:56.364Z,17.65
2022-12-28T05:16:26.002Z,16.20
2022-12-28T05:18:54.690Z,17.45
2022-12-28T05:21:24.240Z,17.95
2022-12-28T05:23:52.320Z,14.73
2022-12-28T05:26:26.198Z,16.48
2022-12-28T05:28:54.366Z,20.23
2022-12-28T05:31:23.154Z,17.42
2022-12-28T05:33:51.040Z,20.13
2022-12-28T05:36:21.087Z,17.40
2022-12-28T05:38:48.960Z,20.02
2022-12-28T05:41:21.308Z,19.45
2022-12-28T05:43:49.422Z,18.05
2022-12-28T05:46:28.586Z,23.35
2022-12-28T05:48:56.605Z,19.50
2022-12-28T05:51:27.409Z,21.45
2022-12-28T05:53:55.177Z,17.52
2022-12-28T05:56:25.028Z,20.90
2022-12-28T05:59:06.772Z,25.30
2022-12-28T06:01:37.852Z,20.30
2022-12-28T06:04:08.618Z,21.30
2022-12-28T06:06:36.397Z,25.58
2022-12-28T06:09:04.054Z,20.30
2022-12-28T06:11:31.654Z,22.07
2022-12-28T06:13:59.794Z,21.90
2022-12-28T06:16:30.109Z,21.70
2022-12-28T06:18:58.279Z,22.83
2022-12-28T06:21:31.289Z,18.40
2022-12-28T06:24:00.876Z,21.10
2022-12-28T06:26:30.640Z,21.50
2022-12-28T06:28:58.350Z,19.17
2022-12-28T06:31:31.201Z,23.45
2022-12-28T06:33:59.925Z,22.55
2022-12-28T06:36:28.632Z,21.45
2022-12-28T06:38:57.695Z,22.75
2022-12-28T06:41:26.243Z,23.08
2022-12-28T06:43:54.320Z,22.17
2022-12-28T06:46:23.955Z,18.70
2022-12-28T06:48:51.900Z,20.55
2022-12-28T06:51:21.813Z,19.45
2022-12-28T06:53:50.584Z,20.20
2022-12-28T06:56:24.023Z,20.10
2022-12-28T06:58:56.905Z,19.98
2022-12-28T07:01:40.385Z,16.58
2022-12-28T07:04:09.342Z,21.55
2022-12-28T07:06:42.531Z,21.23
2022-12-28T07:09:13.807Z,18.63
2022-12-28T07:11:42.098Z,19.23
2022-12-28T07:14:09.713Z,16.83
2022-12-28T07:19:03.276Z,17.10
2022-12-28T07:21:36.245Z,17.65
2022-12-28T07:24:04.847Z,17.90
2022-12-28T07:26:34.408Z,16.58
2022-12-28T07:29:03.963Z,14.05
2022-12-28T07:31:39.764Z,15.67
2022-12-28T07:34:11.574Z,17.60
2022-12-28T07:36:39.119Z,16.00
2022-12-28T07:39:06.537Z,15.80
2022-12-28T07:41:36.186Z,19.98
2022-12-28T07:44:06.352Z,12.38
2022-12-28T07:46:35.635Z,18.35
2022-12-28T07:49:03.329Z,16.08
2022-12-28T07:51:33.104Z,17.17
2022-12-28T07:54:01.171Z,17.73
2022-12-28T07:56:29.645Z,17.45
2022-12-28T07:59:02.130Z,16.85
2022-12-28T08:01:32.268Z,19.70
2022-12-28T08:04:01.913Z,16.60
2022-12-28T08:06:30.785Z,17.23
2022-12-28T08:09:02.028Z,16.30
2022-12-28T08:11:32.096Z,16.63
2022-12-28T08:14:00.543Z,16.90
2022-12-28T08:16:30.880Z,16.27
2022-12-28T08:18:58.437Z,15.02
2022-12-28T08:21:31.087Z,16.17
2022-12-28T08:23:59.189Z,16.13
2022-12-28T08:26:35.670Z,15.35
2022-12-28T08:29:06.087Z,16.55
2022-12-28T08:31:39.720Z,17.10
2022-12-28T08:34:09.102Z,15.52
2022-12-28T08:36:36.806Z,17.63
2022-12-28T08:39:04.633Z,16.85
2022-12-28T08:41:32.304Z,14.98
2022-12-28T08:43:59.817Z,16.95
2022-12-28T08:46:29.772Z,19.35
2022-12-28T08:48:58.742Z,17.02
2022-12-28T08:51:26.094Z,18.67
2022-12-28T08:53:53.781Z,20.55
2022-12-28T08:56:29.194Z,19.75
2022-12-28T08:58:57.403Z,19.88
2022-12-28T09:01:40.779Z,19.05
2022-12-28T09:04:20.703Z,21.13
2022-12-28T09:06:49.044Z,20.73
2022-12-28T09:09:19.197Z,21.20
2022-12-28T09:11:47.330Z,18.95
2022-12-28T09:14:24.509Z,24.83
2022-12-28T09:16:55.210Z,23.10
2022-12-28T09:19:23.276Z,22.90
2022-12-28T09:21:53.141Z,24.42
2022-12-28T09:24:21.839Z,23.60
2022-12-28T09:26:52.532Z,22.73
2022-12-28T09:29:20.030Z,21.77
2022-12-28T09:31:47.357Z,23.30
2022-12-28T09:37:03.247Z,24.67
2022-12-28T09:39:30.779Z,25.97
2022-12-28T09:42:12.273Z,22.48
2022-12-28T09:44:59.581Z,28.52
2022-12-28T09:47:35.775Z,28.33
2022-12-28T09:50:11.951Z,27.20
2022-12-28T09:53:03.959Z,29.88
2022-12-28T09:55:36.500Z,31.45
2022-12-28T09:58:06.077Z,33.20
2022-12-28T10:00:43.722Z,30.88
2022-12-28T10:03:38.598Z,33.03
2022-12-28T10:06:15.704Z,37.95
2022-12-28T10:08:49.020Z,34.33
2022-12-28T10:11:23.623Z,34.08
2022-12-28T10:13:56.690Z,30.13
2022-12-28T10:16:28.385Z,30.58
2022-12-28T10:18:56.087Z,30.08
2022-12-28T10:21:32.366Z,32.72
2022-12-28T10:26:48.544Z,34.95
2022-12-28T10:29:22.563Z,32.13
2022-12-28T10:32:09.149Z,40.22
2022-12-28T10:34:37.284Z,34.05
2022-12-28T10:37:16.684Z,29.67
2022-12-28T10:39:54.938Z,31.55
2022-12-28T10:42:50.738Z,33.40
2022-12-28T10:45:25.208Z,32.53
2022-12-28T10:47:54.380Z,35.25
2022-12-28T10:50:41.481Z,33.20
2022-12-28T10:53:32.887Z,35.00
2022-12-28T10:56:12.342Z,33.43
2022-12-28T10:58:42.983Z,36.10
2022-12-28T11:01:13.301Z,39.30
2022-12-28T11:04:00.788Z,34.20
2022-12-28T11:06:49.950Z,35.33
2022-12-28T11:09:37.613Z,38.63
2022-12-28T11:12:25.894Z,34.42
2022-12-28T11:14:54.258Z,37.73
2022-12-28T11:17:25.053Z,36.23
2022-12-28T11:19:55.624Z,33.15
2022-12-28T11:22:26.217Z,33.17
2022-12-28T11:24:54.445Z,36.78
2022-12-28T11:27:23.567Z,36.63
2022-12-28T11:29:54.024Z,34.08
2022-12-28T11:32:44.005Z,52.47
2022-12-28T11:35:29.729Z,35.87
2022-12-28T11:38:02.800Z,38.40
2022-12-28T11:40:48.882Z,36.40
2022-12-28T11:43:28.395Z,34.85
2022-12-28T11:46:00.719Z,33.05
2022-12-28T11:48:43.448Z,32.42
2022-12-28T11:51:18.983Z,32.47
2022-12-28T11:53:46.310Z,29.67
2022-12-28T11:56:15.773Z,31.42
2022-12-28T11:58:45.689Z,30.67
2022-12-28T12:01:28.482Z,27.85
2022-12-28T12:03:58.662Z,30.08
2022-12-28T12:06:44.941Z,31.10
2022-12-28T12:09:21.594Z,29.93
2022-12-28T12:11:51.077Z,29.90
2022-12-28T12:14:32.418Z,29.35
2022-12-28T12:17:05.639Z,27.80
2022-12-28T12:19:37.842Z,33.45
2022-12-28T12:22:35.038Z,26.55
2022-12-28T12:25:09.431Z,27.38
2022-12-28T12:27:44.686Z,29.38
2022-12-28T12:30:19.807Z,28.37
2022-12-28T12:33:02.310Z,29.95
2022-12-28T12:35:34.768Z,28.83
2022-12-28T12:38:27.854Z,28.35
2022-12-28T12:41:38.860Z,31.02
2022-12-28T12:44:38.644Z,28.38
2022-12-28T12:47:24.851Z,29.53
2022-12-28T12:50:29.095Z,27.05
2022-12-28T12:53:22.949Z,31.70
2022-12-28T12:56:04.638Z,28.35
2022-12-28T12:58:37.796Z,26.40
2022-12-28T13:01:30.500Z,29.20
2022-12-28T13:04:09.123Z,25.70
2022-12-28T13:06:39.618Z,24.10
2022-12-28T13:09:09.859Z,26.73
2022-12-28T13:11:38.780Z,22.63
2022-12-28T13:14:06.898Z,24.85
2022-12-28T13:16:34.347Z,24.33
2022-12-28T13:19:07.337Z,21.90
2022-12-28T13:21:43.951Z,21.83
2022-12-28T13:24:38.954Z,22.40
2022-12-28T13:27:18.693Z,27.40
2022-12-28T13:29:52.293Z,21.17
2022-12-28T13:32:39.446Z,22.13
2022-12-28T13:35:21.287Z,23.70
2022-12-28T13:38:08.877Z,20.67
2022-12-28T13:40:38.920Z,22.90
2022-12-28T13:43:34.069Z,23.55
2022-12-28T13:46:08.199Z,23.77
2022-12-28T13:48:40.064Z,22.65
2022-12-28T13:51:14.181Z,19.20
2022-12-28T13:53:45.839Z,21.17
2022-12-28T13:56:16.490Z,22.00
2022-12-28T13:58:57.927Z,17.15
2022-12-28T14:01:30.817Z,18.00
2022-12-28T14:04:33.688Z,16.48
2022-12-28T14:06:51.110Z,16.25
2022-12-28T14:09:20.964Z,17.05
2022-12-28T14:11:49.428Z,17.95
2022-12-28T14:14:17.701Z,18.55
2022-12-28T14:16:45.760Z,16.63
2022-12-28T14:19:13.503Z,17.10
2022-12-28T14:21:45.103Z,18.48
2022-12-28T14:24:14.862Z,19.60
2022-12-28T14:26:58.040Z,17.65
2022-12-28T14:29:31.553Z,17.75
2022-12-28T14:32:12.326Z,16.60
2022-12-28T14:34:39.732Z,19.52
2022-12-28T14:37:21.793Z,19.80
2022-12-28T14:39:49.591Z,19.65
2022-12-28T14:42:27.408Z,21.52
2022-12-28T14:44:56.764Z,18.23
2022-12-28T14:47:46.569Z,20.33
2022-12-28T14:50:28.190Z,22.27
2022-12-28T14:53:18.264Z,20.10
2022-12-28T14:55:57.837Z,26.50
2022-12-28T14:58:28.870Z,24.50
2022-12-28T15:01:02.549Z,27.05
2022-12-28T15:03:30.814Z,25.77
2022-12-28T15:05:59.508Z,31.45
2022-12-28T15:08:30.195Z,28.27
2022-12-28T15:11:01.155Z,31.65
2022-12-28T15:13:28.579Z,32.17
2022-12-28T15:16:01.546Z,33.55
2022-12-28T15:18:30.844Z,27.20
2022-12-28T15:21:03.852Z,31.38
2022-12-28T15:23:31.261Z,34.30
2022-12-28T15:25:58.700Z,30.70
2022-12-28T15:28:26.054Z,31.23
2022-12-28T15:30:53.468Z,33.42
2022-12-28T15:33:20.848Z,32.63
2022-12-28T15:35:48.219Z,36.88
2022-12-28T15:38:15.537Z,33.25
2022-12-28T15:40:43.223Z,35.93
2022-12-28T15:43:10.625Z,33.10
2022-12-28T15:45:37.934Z,36.28
2022-12-28T15:48:06.264Z,32.60
2022-12-28T15:50:33.608Z,32.42
2022-12-28T15:53:00.924Z,33.08
2022-12-28T15:55:28.378Z,36.10
2022-12-28T15:57:55.810Z,35.70
2022-12-28T16:00:23.226Z,36.53
2022-12-28T16:02:50.802Z,35.90
2022-12-28T16:05:18.397Z,36.95
2022-12-28T16:07:45.760Z,34.17
2022-12-28T16:10:13.433Z,37.25
2022-12-28T16:12:40.930Z,36.58
2022-12-28T16:15:08.836Z,38.70
2022-12-28T16:17:44.132Z,38.63
2022-12-28T16:20:17.429Z,38.17
2022-12-28T16:22:45.087Z,40.47
2022-12-28T16:25:12.571Z,38.80
2022-12-28T16:27:39.905Z,39.85
2022-12-28T16:30:07.714Z,41.60
2022-12-28T16:32:34.982Z,40.88
2022-12-28T16:35:02.334Z,38.83
2022-12-28T16:37:29.742Z,43.28
2022-12-28T16:39:57.084Z,43.00
2022-12-28T16:42:24.475Z,41.70
2022-12-28T16:44:51.904Z,40.88
2022-12-28T16:47:19.247Z,41.05
2022-12-28T16:49:46.627Z,39.08
2022-12-28T16:52:14.817Z,40.72
2022-12-28T16:54:42.233Z,43.33
2022-12-28T16:57:09.488Z,40.33
2022-12-28T16:59:36.885Z,41.45
2022-12-28T17:02:05.489Z,42.80
2022-12-28T17:04:33.008Z,41.90
2022-12-28T17:07:00.419Z,43.78
2022-12-28T17:09:27.768Z,38.85
2022-12-28T17:11:55.151Z,38.70
2022-12-28T17:14:36.804Z,42.85
2022-12-28T17:17:06.704Z,39.13
2022-12-28T17:19:34.781Z,40.75
2022-12-28T17:22:02.621Z,40.97
2022-12-28T17:24:30.049Z,42.38
2022-12-28T17:27:03.476Z,40.22
2022-12-28T17:29:34.809Z,47.15
2022-12-28T17:32:02.261Z,41.67
2022-12-28T17:34:29.697Z,47.00
2022-12-28T17:36:57.063Z,46.10
2022-12-28T17:39:25.104Z,47.60
2022-12-28T17:41:52.403Z,47.50
2022-12-28T17:44:19.741Z,46.42
2022-12-28T17:46:47.054Z,44.05
2022-12-28T17:49:15.674Z,45.35
2022-12-28T17:51:44.542Z,41.05
2022-12-28T17:54:14.394Z,40.53
2022-12-28T17:56:43.024Z,42.10
2022-12-28T17:59:15.281Z,37.92
2022-12-28T18:01:43.237Z,39.63
2022-12-28T18:04:12.104Z,44.40
2022-12-28T18:06:40.025Z,43.42
2022-12-28T18:09:07.718Z,41.63
2022-12-28T18:11:35.080Z,38.53
2022-12-28T18:14:02.415Z,37.17
2022-12-28T18:16:29.776Z,40.28
2022-12-28T18:18:57.171Z,37.85
2022-12-28T18:21:25.047Z,35.47
2022-12-28T18:23:52.801Z,43.67
2022-12-28T18:26:22.631Z,39.67
2022-12-28T18:28:50.022Z,40.90
2022-12-28T18:31:17.552Z,34.15
2022-12-28T18:33:44.978Z,40.55
2022-12-28T18:36:17.431Z,35.83
2022-12-28T18:38:46.804Z,39.65
2022-12-28T18:41:16.311Z,38.17
2022-12-28T18:43:44.296Z,36.83
2022-12-28T18:46:11.940Z,38.72
2022-12-28T18:48:40.898Z,39.67
2022-12-28T18:51:09.802Z,37.85
2022-12-28T18:53:38.134Z,42.10
2022-12-28T18:56:23.674Z,40.42
2022-12-28T18:58:56.255Z,40.77
2022-12-28T19:02:04.785Z,42.78
2022-12-28T19:04:14.393Z,38.20
2022-12-28T19:06:42.737Z,44.10
2022-12-28T19:09:11.412Z,40.13
2022-12-28T19:11:41.275Z,38.90
2022-12-28T19:14:12.420Z,41.10
2022-12-28T19:16:40.134Z,37.53
2022-12-28T19:19:07.714Z,34.55
2022-12-28T19:21:37.531Z,33.33
2022-12-28T19:24:10.283Z,37.88
2022-12-28T19:26:37.781Z,35.90
2022-12-28T19:29:06.010Z,35.63
2022-12-28T19:31:34.467Z,35.05
2022-12-28T19:34:01.947Z,38.80
2022-12-28T19:36:29.803Z,39.03
2022-12-28T19:38:57.945Z,38.47
2022-12-28T19:41:25.742Z,40.90
2022-12-28T19:43:53.347Z,38.75
2022-12-28T19:46:23.360Z,39.67
2022-12-28T19:48:53.984Z,33.65
2022-12-28T19:51:27.110Z,37.45
2022-12-28T19:53:57.549Z,37.78
2022-12-28T19:56:24.934Z,39.10
2022-12-28T19:58:55.400Z,34.83
2022-12-28T20:01:28.684Z,38.33
2022-12-28T20:03:56.635Z,38.67
2022-12-28T20:06:29.576Z,35.97
2022-12-28T20:09:01.201Z,32.25
2022-12-28T20:11:29.662Z,33.03
2022-12-28T20:14:02.526Z,30.97
2022-12-28T20:16:32.185Z,31.15
2022-12-28T20:19:01.580Z,35.72
2022-12-28T20:21:29.038Z,34.88
2022-12-28T20:23:56.525Z,33.72
2022-12-28T20:26:28.905Z,31.70
2022-12-28T20:29:01.476Z,29.83
2022-12-28T20:31:29.804Z,28.48
2022-12-28T20:33:57.538Z,30.27
2022-12-28T20:36:27.366Z,27.75
2022-12-28T20:38:56.080Z,29.13
2022-12-28T20:41:49.810Z,31.35
2022-12-28T20:44:28.314Z,28.80
2022-12-28T20:46:56.823Z,29.13
2022-12-28T20:49:26.024Z,28.87
2022-12-28T20:51:53.824Z,30.92
2022-12-28T20:54:22.006Z,27.02
2022-12-28T20:56:54.794Z,28.33
2022-12-28T20:59:24.696Z,25.88
2022-12-28T21:01:52.401Z,29.15
2022-12-28T21:04:19.867Z,29.33
2022-12-28T21:06:47.347Z,24.52
2022-12-28T21:09:14.751Z,23.48
2022-12-28T21:11:42.068Z,25.15
2022-12-28T21:14:09.470Z,26.40
2022-12-28T21:16:36.940Z,25.42
2022-12-28T21:19:04.458Z,27.97
2022-12-28T21:21:31.936Z,28.33
2022-12-28T21:24:01.391Z,26.08
2022-12-28T21:26:28.796Z,27.70
2022-12-28T21:28:56.151Z,29.55
2022-12-28T21:31:23.630Z,27.02
2022-12-28T21:33:55.802Z,24.17
2022-12-28T21:36:23.171Z,32.17
2022-12-28T21:38:51.250Z,29.40
2022-12-28T21:41:39.980Z,32.60
2022-12-28T21:44:09.802Z,27.88
2022-12-28T21:46:37.367Z,30.75
2022-12-28T21:49:05.316Z,27.10
2022-12-28T21:51:35.849Z,28.42
2022-12-28T21:54:18.260Z,27.80
2022-12-28T21:56:49.354Z,32.10
2022-12-28T21:59:16.715Z,25.67
2022-12-28T22:02:02.970Z,26.98
2022-12-28T22:04:49.269Z,32.25
2022-12-28T22:07:19.186Z,24.27
2022-12-28T22:10:05.709Z,21.20
2022-12-28T22:12:37.006Z,19.73
2022-12-28T22:15:37.950Z,29.60
2022-12-28T22:18:08.339Z,26.85
2022-12-28T22:20:37.474Z,30.00
2022-12-28T22:23:06.253Z,25.13
2022-12-28T22:25:33.986Z,23.75
2022-12-28T22:28:01.965Z,19.90
2022-12-28T22:30:31.053Z,24.17
2022-12-28T22:32:58.398Z,20.80
2022-12-28T22:35:26.000Z,21.13
2022-12-28T22:37:53.452Z,24.75
2022-12-28T22:40:22.559Z,21.67
2022-12-28T22:42:50.833Z,23.55
2022-12-28T22:45:20.593Z,20.73
2022-12-28T22:47:48.140Z,21.38
2022-12-28T22:50:17.443Z,25.02
2022-12-28T22:52:45.799Z,22.70
2022-12-28T22:55:13.643Z,22.30
2022-12-28T22:57:41.053Z,24.20
2022-12-28T23:00:12.254Z,22.67
2022-12-28T23:02:39.720Z,21.87
2022-12-28T23:05:07.553Z,25.73
2022-12-28T23:07:36.299Z,24.90
2022-12-28T23:10:04.408Z,28.00
2022-12-28T23:12:31.893Z,26.08
2022-12-28T23:15:18.900Z,24.75
2022-12-28T23:17:48.382Z,26.80
2022-12-28T23:20:34.467Z,24.98
2022-12-28T23:23:20.500Z,22.45
2022-12-28T23:26:06.481Z,25.83
2022-12-28T23:28:36.047Z,25.08
2022-12-28T23:31:04.136Z,27.40
2022-12-28T23:33:31.598Z,24.75
2022-12-28T23:36:03.097Z,24.90
2022-12-28T23:38:32.496Z,28.15
2022-12-28T23:41:23.205Z,27.02
2022-12-28T23:43:50.544Z,23.50
2022-12-28T23:46:18.025Z,21.70
2022-12-28T23:48:45.411Z,21.97
2022-12-28T23:51:12.742Z,24.00
2022-12-28T23:53:40.144Z,22.92
2022-12-28T23:56:08.155Z,24.97
2022-12-28T23:58:35.492Z,24.38
